PABI/DJN METAR and TAF weather

Enter ICAO airport designator
Station Type Date Time Source
PABI METAR 2019/10/15 07:53 UTC NOAA

PABI 150753Z AUTO 09023G31KT 10SM CLR M05/M08 A2966 RMK AO2 PK WND 09034/0725 SLP073 T10501083 TSNO


Station Type Date Time Source
PABI Decoded METAR 2019/10/15 07:53 UTC NOAA

ALLEN ARMY AIRFIELD, AK, United States (PABI) 64-00N 145-43W 391M
Oct 15, 2019 - 03:53 AM EDT / 2019.10.15 0753 UTC
Wind: from the E (090 degrees) at 26 MPH (23 KT) gusting to 36 MPH (31 KT):0
Visibility: 10 mile(s):0
Sky conditions: clear
Temperature: 23.0 F (-5.0 C)
Windchill: 6 F (-14 C):1
Dew Point: 17.1 F (-8.3 C)
Relative Humidity: 77%
Pressure (altimeter): 29.66 in. Hg (1004 hPa)
ob: PABI 150753Z AUTO 09023G31KT 10SM CLR M05/M08 A2966 RMK AO2 PK WND 09034/0725 SLP073 T10501083 TSNO
cycle: 8

Station Type Date Time Source
PABI TAF 2019/10/11 06:22 UTC NOAA

TAF PABI 110600Z 1106/1212 26006KT 3200 -SN BR FEW004 OVC017 620179 QNH2971INS
BECMG 1112/1113 28010G20KT 0800 SN OVC015 620159 QNH2959INS
BECMG 1114/1115 28012G25KT 0400 +SN OVC015 620159 QNH2955INS
TEMPO 1118/1124 28015G30KT 510003 TX00/1106Z TNM02/1119Z LAST NO
AMDS AFT 1106 NEXT 1514

Example: see airport list